• Join FlightAware (Why Join?)
  • Login
  • US Flag 
11:24AM EDT


 

Airport Tracker/Info


-or-


 

Live Flight TrackerFlight Track Log ✈ KAP5 ✈ 22-Jun-2013 ✈ KOGS - KALB

Flight Track Log - Related Links

Times and Time Zones

All times are in EDT time to prevent confusion due to time zone crossing. See the KAP5 flight status page for this flight to view local times or setup timezone preferences in your user account.

Time Position Orientation Groundspeed Altitude Reporting Facility
EDT Latitude Longitude Course Direction KTS MPH feet Rate Location/Type
12:50PM 44.6900 -75.3222 71° East 159 183 4,400  Level Boston Center
12:51PM 44.6594 -75.2914 144° Southeast 139 160 5,200 660 Climbing Boston Center
12:52PM 44.6247 -75.2636 150° Southeast 139 160 5,800 600 Climbing Boston Center
12:53PM 44.5858 -75.2356 153° Southeast 145 167 6,500 540 Climbing Boston Center
12:54PM 44.5489 -75.2075 152° Southeast 156 180 7,000 180 Climbing Boston Center
12:55PM 44.7859 -75.0898 71° East  Level FlightAware Approximate
12:55PM 44.4978 -75.1672 151° Southeast 161 185 7,000  Level Boston Center
12:56PM 44.4550 -75.1333 151° Southeast 172 198 7,000  Level Boston Center
12:57PM 44.4100 -75.0964 150° Southeast 177 204 7,000 -60 Level Boston Center
12:58PM 44.3647 -75.0625 152° Southeast 177 204 6,900 -60 Descending Boston Center
12:59PM 44.3219 -75.0286 150° Southeast 177 204 6,900  Level Boston Center
01:00PM 44.2767 -74.9919 150° Southeast 182 209 6,900  Level Boston Center
01:01PM 44.2317 -74.9550 150° Southeast 182 209 6,900  Level Boston Center
01:02PM 44.1886 -74.9214 151° Southeast 177 204 6,900  Level Boston Center
01:03PM 44.1436 -74.8847 150° Southeast 182 209 6,900  Level Boston Center
01:04PM 44.0986 -74.8511 152° Southeast 182 209 6,900  Level Boston Center
01:05PM 44.0556 -74.8147 149° Southeast 182 209 6,900  Level Boston Center
01:06PM 44.0106 -74.7783 150° Southeast 182 209 6,900  Level Boston Center
01:07PM 43.9653 -74.7447 152° Southeast 182 209 6,900  Level Boston Center
01:08PM 43.9222 -74.7086 149° Southeast 182 209 6,900  Level Boston Center
01:09PM 43.8792 -74.6753 151° Southeast 182 209 6,900  Level Boston Center
01:10PM 43.8339 -74.6419 152° Southeast 182 209 6,900  Level Boston Center
01:11PM 43.7908 -74.6058 149° Southeast 182 209 6,900  Level Boston Center
01:12PM 43.7500 -74.5611 142° Southeast 182 209 6,900  Level Boston Center
01:13PM 43.7133 -74.5169 139° Southeast 182 209 6,900  Level Boston Center
01:14PM 43.6703 -74.4781 147° Southeast 182 209 7,000  Climbing Boston Center
01:15PM 43.6269 -74.4422 149° Southeast 176 203 6,900 -60 Descending Boston Center
01:16PM 43.5839 -74.4150 155° Southeast 181 208 6,900  Level Boston Center
01:17PM 43.5361 -74.3906 160° South 181 208 6,900  Level Boston Center
01:18PM 43.5136 -74.3756 154° Southeast 182 209 6,900  Level Boston Center
01:19PM 43.4661 -74.3511 160° South 182 209 6,900  Level Boston Center
01:20PM 43.4186 -74.3239 157° South 182 209 6,900  Level Boston Center
01:21PM 43.3733 -74.2881 150° Southeast 183 211 6,900  Level Boston Center
01:22PM 43.3281 -74.2497 148° Southeast 182 209 6,900  Level Boston Center
01:23PM 43.2847 -74.2169 151° Southeast 183 211 6,900  Level Boston Center
01:24PM 43.2394 -74.1814 150° Southeast 183 211 6,900 -60 Level Boston Center
01:25PM 43.1922 -74.1458 151° Southeast 184 212 6,800 -300 Descending Boston Center
01:26PM 43.1508 -74.1106 148° Southeast 180 207 6,300 -420 Descending Boston Center
01:27PM 43.1139 -74.0756 145° Southeast 165 190 6,000 -240 Descending Boston Center
01:28PM 43.0789 -74.0461 148° Southeast 142 163 5,900 -300 Descending Boston Center
01:29PM 43.0653 -73.9803 106° East 185 213 5,400 -480 Descending Boston Center
01:30PM 43.0536 -73.9147 104° East 156 180 5,000 -360 Descending Boston Center
01:31PM 43.0400 -73.8464 105° East 148 170 4,600 -480 Descending Boston Center
01:32PM 43.0175 -73.8117 132° Southeast 131 151 4,000 -600 Descending Boston Center
01:33PM 42.9906 -73.7997 162° South 112 129 3,500 -540 Descending Boston Center
01:34PM 42.9653 -73.8078 193° South 105 121 3,100 -480 Descending Boston Center
01:35PM 42.9339 -73.8128 187° South 107 123 2,600 -240 Descending Boston Center
01:36PM 42.9047 -73.8092 175° South 106 122 2,600 -120 Level Boston Center
01:37PM 42.8736 -73.8083 179° South 123 142 2,400 -420 Descending Boston Center
01:38PM 42.8339 -73.8103 182° South 144 166 1,800 -720 Descending Boston Center
01:39PM 42.7944 -73.8094 179° South 141 162 1,000 -840 Descending Boston Center
01:41PM 42.7491 -73.8020 174° South  Level Estimated
01:48PM 42.7491 -73.8020 180° South  Level Estimated
01:49PM 42.7491 -73.8020 180° South  Level Estimated